createdAt,value
2018-04-16T00:01:51.326Z,3.17
2018-04-16T00:04:19.639Z,3.70
2018-04-16T00:06:47.123Z,3.60
2018-04-16T00:09:14.585Z,3.23
2018-04-16T00:11:42.080Z,3.20
2018-04-16T00:14:10.306Z,3.40
2018-04-16T00:16:37.799Z,3.97
2018-04-16T00:19:05.281Z,3.50
2018-04-16T00:21:32.779Z,3.87
2018-04-16T00:24:00.239Z,3.90
2018-04-16T00:26:27.714Z,3.43
2018-04-16T00:28:55.173Z,3.60
2018-04-16T00:31:22.689Z,3.83
2018-04-16T00:33:55.933Z,3.90
2018-04-16T00:36:29.174Z,3.77
2018-04-16T00:39:02.395Z,3.70
2018-04-16T00:41:35.622Z,4.03
2018-04-16T00:44:09.547Z,4.00
2018-04-16T00:46:42.731Z,3.53
2018-04-16T00:49:16.765Z,3.70
2018-04-16T00:51:49.932Z,4.00
2018-04-16T00:54:23.773Z,4.10
2018-04-16T00:56:57.056Z,4.00
2018-04-16T00:59:30.283Z,4.00
2018-04-16T01:02:03.530Z,3.73
2018-04-16T01:04:36.833Z,3.57
2018-04-16T01:07:09.892Z,3.93
2018-04-16T01:09:43.719Z,3.97
2018-04-16T01:12:16.891Z,3.60
2018-04-16T01:14:50.825Z,3.50
2018-04-16T01:17:23.945Z,3.80
2018-04-16T01:19:57.189Z,3.37
2018-04-16T01:22:31.220Z,3.47
2018-04-16T01:25:04.324Z,3.60
2018-04-16T01:27:37.627Z,3.90
2018-04-16T01:30:10.914Z,3.47
2018-04-16T01:32:44.119Z,3.30
2018-04-16T01:35:17.404Z,3.47
2018-04-16T01:37:50.517Z,3.63
2018-04-16T01:40:23.743Z,3.80
2018-04-16T01:42:57.612Z,3.63
2018-04-16T01:45:30.897Z,3.30
2018-04-16T01:48:04.225Z,3.17
2018-04-16T01:50:38.112Z,3.20
2018-04-16T01:53:11.355Z,3.17
2018-04-16T01:55:44.616Z,3.10
2018-04-16T01:58:18.592Z,3.33
2018-04-16T02:00:51.816Z,3.43
2018-04-16T02:03:25.970Z,3.17
2018-04-16T02:05:59.036Z,3.60
2018-04-16T02:08:33.100Z,3.60
2018-04-16T02:11:06.199Z,3.93
2018-04-16T02:13:39.411Z,4.23
2018-04-16T02:16:13.488Z,4.07
2018-04-16T02:18:46.777Z,4.07
2018-04-16T02:21:19.964Z,4.10
2018-04-16T02:23:53.388Z,4.33
2018-04-16T02:26:26.681Z,3.90
2018-04-16T02:28:59.956Z,3.50
2018-04-16T02:31:33.242Z,3.57
2018-04-16T02:34:06.506Z,3.83
2018-04-16T02:36:39.753Z,3.73
2018-04-16T02:39:13.035Z,3.90
2018-04-16T02:41:46.213Z,3.57
2018-04-16T02:44:19.529Z,3.90
2018-04-16T02:46:52.807Z,3.80
2018-04-16T02:49:26.113Z,3.47
2018-04-16T02:51:59.385Z,3.83
2018-04-16T02:54:32.655Z,3.43
2018-04-16T02:57:05.763Z,3.70
2018-04-16T02:59:38.860Z,3.77
2018-04-16T03:02:11.972Z,3.90
2018-04-16T03:07:47.724Z,4.10
2018-04-16T03:10:20.880Z,3.83
2018-04-16T03:12:54.135Z,3.87
2018-04-16T03:15:27.264Z,4.00
2018-04-16T03:18:00.483Z,4.10
2018-04-16T03:20:33.712Z,4.17
2018-04-16T03:23:06.883Z,3.33
2018-04-16T03:25:39.994Z,3.93
2018-04-16T03:28:13.114Z,4.00
2018-04-16T03:30:46.460Z,4.20
2018-04-16T03:33:19.657Z,4.13
2018-04-16T03:38:48.517Z,4.30
2018-04-16T03:41:21.766Z,4.27
2018-04-16T03:43:55.049Z,4.00
2018-04-16T03:46:28.333Z,4.30
2018-04-16T03:49:01.545Z,3.93
2018-04-16T03:51:34.829Z,4.70
2018-04-16T03:54:02.338Z,4.30
2018-04-16T03:56:29.823Z,4.50
2018-04-16T03:58:57.291Z,4.90
2018-04-16T04:01:24.774Z,4.10
2018-04-16T04:03:52.231Z,4.43
2018-04-16T04:06:19.829Z,4.53
2018-04-16T04:08:47.392Z,4.80
2018-04-16T04:11:14.887Z,4.97
2018-04-16T04:13:42.415Z,4.80
2018-04-16T04:16:09.910Z,5.07
2018-04-16T04:18:38.188Z,5.13
2018-04-16T04:21:05.669Z,4.30
2018-04-16T04:37:02.321Z,4.63
2018-04-16T04:39:29.775Z,4.77
2018-04-16T04:41:57.266Z,5.13
2018-04-16T04:44:24.732Z,5.00
2018-04-16T04:46:52.222Z,4.57
2018-04-16T04:49:20.455Z,4.80
2018-04-16T04:51:47.953Z,4.33
2018-04-16T04:54:16.187Z,4.87
2018-04-16T04:56:43.654Z,5.07
2018-04-16T04:59:11.126Z,5.87
2018-04-16T05:01:38.598Z,6.47
2018-04-16T05:04:06.840Z,6.00
2018-04-16T05:06:34.466Z,5.50
2018-04-16T05:09:01.947Z,5.37
2018-04-16T05:11:29.400Z,5.10
2018-04-16T05:13:56.892Z,5.40
2018-04-16T05:16:24.351Z,5.53
2018-04-16T05:18:52.019Z,5.90
2018-04-16T05:21:20.301Z,5.33
2018-04-16T05:23:48.540Z,4.93
2018-04-16T05:26:15.997Z,5.30
2018-04-16T05:28:43.588Z,8.07
2018-04-16T05:31:11.828Z,5.67
2018-04-16T05:33:39.317Z,5.60
2018-04-16T05:36:06.783Z,4.80
2018-04-16T05:38:35.019Z,5.10
2018-04-16T05:41:02.494Z,5.70
2018-04-16T05:43:29.973Z,5.23
2018-04-16T05:45:58.211Z,5.13
2018-04-16T05:48:25.691Z,5.90
2018-04-16T05:50:53.150Z,6.23
2018-04-16T05:53:20.625Z,6.13
2018-04-16T05:55:49.545Z,5.73
2018-04-16T05:58:17.027Z,5.77
2018-04-16T06:00:44.499Z,4.93
2018-04-16T06:03:12.087Z,5.10
2018-04-16T06:05:40.353Z,4.63
2018-04-16T06:08:07.865Z,4.67
2018-04-16T06:10:35.323Z,4.50
2018-04-16T06:13:02.804Z,4.13
2018-04-16T06:15:30.322Z,4.20
2018-04-16T06:17:58.675Z,4.70
2018-04-16T06:20:26.191Z,4.63
2018-04-16T06:22:53.657Z,4.83
2018-04-16T06:25:21.132Z,4.80
2018-04-16T06:27:49.354Z,4.53
2018-04-16T06:30:16.860Z,4.03
2018-04-16T06:32:44.316Z,4.30
2018-04-16T06:35:11.859Z,4.27
2018-04-16T06:37:39.331Z,4.40
2018-04-16T06:40:06.841Z,3.97
2018-04-16T06:42:34.300Z,4.33
2018-04-16T06:45:01.809Z,4.27
2018-04-16T06:47:29.371Z,4.50
2018-04-16T06:49:56.861Z,4.67
2018-04-16T06:52:24.359Z,4.67
2018-04-16T06:54:51.847Z,4.23
2018-04-16T06:57:20.078Z,4.37
2018-04-16T06:59:47.643Z,4.93
2018-04-16T07:02:15.156Z,4.73
2018-04-16T07:04:42.657Z,4.97
2018-04-16T07:07:10.197Z,5.83
2018-04-16T07:09:37.689Z,5.47
2018-04-16T07:12:05.167Z,5.37
2018-04-16T07:14:32.726Z,5.53
2018-04-16T07:17:01.001Z,5.00
2018-04-16T07:19:29.231Z,4.30
2018-04-16T07:21:56.731Z,4.53
2018-04-16T07:24:24.973Z,4.00
2018-04-16T07:26:52.457Z,3.87
2018-04-16T07:29:19.919Z,4.03
2018-04-16T07:31:48.176Z,3.70
2018-04-16T07:34:15.660Z,3.60
2018-04-16T07:36:44.642Z,3.37
2018-04-16T07:39:12.883Z,3.20
2018-04-16T07:41:40.379Z,2.80
2018-04-16T07:44:08.669Z,3.60
2018-04-16T07:46:36.919Z,3.17
2018-04-16T07:49:04.387Z,3.50
2018-04-16T07:51:32.669Z,3.50
2018-04-16T07:54:00.906Z,3.47
2018-04-16T07:56:28.478Z,3.40
2018-04-16T07:58:55.932Z,2.93
2018-04-16T08:01:23.448Z,3.67
2018-04-16T08:03:51.679Z,3.97
2018-04-16T08:06:19.143Z,4.23
2018-04-16T08:08:47.404Z,3.83
2018-04-16T08:11:14.892Z,3.67
2018-04-16T08:13:43.153Z,3.27
2018-04-16T08:16:10.641Z,3.20
2018-04-16T08:18:38.124Z,4.03
2018-04-16T08:21:05.601Z,3.53
2018-04-16T08:23:33.088Z,3.30
2018-04-16T08:26:00.542Z,3.20
2018-04-16T08:28:29.530Z,4.03
2018-04-16T08:30:57.791Z,3.47
2018-04-16T08:33:25.376Z,3.20
2018-04-16T08:35:53.629Z,5.03
2018-04-16T08:38:21.105Z,3.50
2018-04-16T08:40:49.332Z,4.17
2018-04-16T08:43:16.815Z,2.90
2018-04-16T08:45:44.279Z,2.90
2018-04-16T08:48:12.583Z,3.30
2018-04-16T08:50:40.819Z,3.00
2018-04-16T08:53:08.306Z,2.73
2018-04-16T08:55:36.539Z,3.17
2018-04-16T08:58:04.023Z,3.03
2018-04-16T09:00:32.305Z,2.90
2018-04-16T09:02:59.774Z,3.00
2018-04-16T09:05:28.026Z,3.20
2018-04-16T09:07:57.027Z,3.30
2018-04-16T09:10:25.997Z,3.10
2018-04-16T09:12:53.475Z,2.90
2018-04-16T09:15:21.763Z,3.20
2018-04-16T09:17:49.264Z,2.63
2018-04-16T09:20:16.720Z,2.83
2018-04-16T09:22:44.202Z,2.67
2018-04-16T09:25:11.669Z,2.60
2018-04-16T09:27:39.196Z,2.60
2018-04-16T09:30:06.713Z,2.60
2018-04-16T09:32:34.961Z,2.80
2018-04-16T09:35:02.423Z,2.50
2018-04-16T09:37:30.007Z,2.23
2018-04-16T09:39:58.232Z,2.50
2018-04-16T09:42:25.719Z,2.93
2018-04-16T09:44:54.703Z,2.40
2018-04-16T09:47:22.204Z,2.70
2018-04-16T09:49:49.684Z,3.27
2018-04-16T09:52:17.172Z,4.80
2018-04-16T09:54:44.663Z,2.60
2018-04-16T09:57:12.933Z,2.20
2018-04-16T09:59:40.490Z,2.20
2018-04-16T10:02:13.656Z,2.60
2018-04-16T10:04:41.126Z,2.57
2018-04-16T10:07:08.607Z,2.30
2018-04-16T10:09:36.879Z,2.20
2018-04-16T10:12:05.108Z,2.17
2018-04-16T10:14:32.589Z,2.17
2018-04-16T10:17:00.066Z,2.13
2018-04-16T10:19:29.058Z,1.77
2018-04-16T10:21:57.308Z,2.00
2018-04-16T10:24:24.817Z,1.93
2018-04-16T10:26:52.354Z,1.90
2018-04-16T10:29:20.604Z,1.90
2018-04-16T10:31:48.082Z,1.70
2018-04-16T10:34:16.349Z,1.80
2018-04-16T10:36:43.813Z,1.70
2018-04-16T10:39:11.363Z,1.40
2018-04-16T10:41:38.821Z,1.20
2018-04-16T10:44:06.323Z,1.50
2018-04-16T10:46:33.794Z,1.40
2018-04-16T10:49:01.336Z,1.30
2018-04-16T10:51:28.771Z,1.57
2018-04-16T10:53:57.032Z,1.47
2018-04-16T10:56:24.504Z,2.20
2018-04-16T10:58:52.757Z,1.70
2018-04-16T11:01:20.242Z,1.50
2018-04-16T11:03:48.487Z,1.30
2018-04-16T11:06:15.962Z,1.60
2018-04-16T11:08:44.216Z,1.40
2018-04-16T11:11:11.686Z,1.30
2018-04-16T11:13:39.164Z,1.10
2018-04-16T11:16:07.387Z,1.23
2018-04-16T11:18:34.882Z,1.40
2018-04-16T11:21:03.122Z,1.37
2018-04-16T11:23:30.611Z,0.90
2018-04-16T11:25:58.081Z,1.20
2018-04-16T11:28:26.332Z,1.50
2018-04-16T11:30:55.308Z,1.10
2018-04-16T11:33:22.793Z,1.10
2018-04-16T11:35:50.261Z,1.20
2018-04-16T11:38:18.516Z,1.10
2018-04-16T11:40:45.972Z,1.00
2018-04-16T11:43:13.459Z,1.10
2018-04-16T11:45:41.716Z,1.00
2018-04-16T11:48:09.963Z,1.20
2018-04-16T11:50:37.428Z,1.00
2018-04-16T11:53:04.921Z,1.10
2018-04-16T11:55:33.152Z,1.30
2018-04-16T11:58:00.644Z,1.10
2018-04-16T12:00:28.879Z,1.30
2018-04-16T12:02:56.369Z,1.10
2018-04-16T12:05:23.844Z,1.17
2018-04-16T12:07:52.081Z,1.30
2018-04-16T12:10:19.558Z,1.00
2018-04-16T12:12:47.059Z,1.10
2018-04-16T12:15:14.528Z,1.37
2018-04-16T12:17:42.008Z,1.20
2018-04-16T12:20:09.519Z,1.67
2018-04-16T12:22:37.069Z,1.20
2018-04-16T12:25:05.315Z,1.20
2018-04-16T12:27:32.787Z,1.30
2018-04-16T12:30:01.042Z,1.30
2018-04-16T12:32:29.280Z,1.37
2018-04-16T12:34:56.895Z,1.17
2018-04-16T12:37:25.126Z,1.40
2018-04-16T12:39:52.614Z,1.30
2018-04-16T12:42:20.187Z,1.60
2018-04-16T12:44:48.458Z,1.27
2018-04-16T12:47:15.942Z,3.60
2018-04-16T12:49:43.497Z,1.60
2018-04-16T12:52:11.040Z,1.30
2018-04-16T12:54:39.358Z,1.23
2018-04-16T12:57:06.823Z,1.40
2018-04-16T12:59:34.317Z,1.40
2018-04-16T13:02:01.824Z,1.37
2018-04-16T13:04:29.305Z,1.23
2018-04-16T13:06:56.792Z,1.27
2018-04-16T13:09:25.037Z,1.30
2018-04-16T13:11:52.526Z,1.27
2018-04-16T13:14:21.534Z,1.40
2018-04-16T13:16:49.944Z,1.23
2018-04-16T13:19:17.423Z,1.30
2018-04-16T13:21:44.905Z,2.07
2018-04-16T13:24:13.154Z,1.70
2018-04-16T13:26:40.636Z,1.13
2018-04-16T13:29:08.119Z,1.30
2018-04-16T13:31:36.345Z,1.20
2018-04-16T13:34:03.854Z,1.20
2018-04-16T13:36:32.394Z,1.10
2018-04-16T13:38:59.875Z,1.17
2018-04-16T13:41:27.338Z,1.17
2018-04-16T13:43:54.823Z,0.97
2018-04-16T13:46:22.365Z,1.20
2018-04-16T13:48:50.639Z,3.20
2018-04-16T13:51:18.867Z,1.90
2018-04-16T13:53:46.362Z,2.00
2018-04-16T13:56:13.828Z,2.33
2018-04-16T13:58:42.092Z,1.80
2018-04-16T14:01:09.560Z,1.77
2018-04-16T14:03:37.811Z,1.13
2018-04-16T14:06:05.289Z,1.30
2018-04-16T14:08:33.559Z,1.27
2018-04-16T14:11:01.034Z,1.37
2018-04-16T14:13:29.317Z,1.20
2018-04-16T14:15:57.560Z,0.90
2018-04-16T14:18:26.557Z,1.10
2018-04-16T14:20:54.030Z,1.17
2018-04-16T14:23:22.300Z,1.10
2018-04-16T14:25:50.541Z,1.07
2018-04-16T14:28:18.028Z,1.40
2018-04-16T14:30:45.496Z,1.27
2018-04-16T14:33:13.723Z,1.00
2018-04-16T14:35:41.204Z,1.00
2018-04-16T14:38:08.705Z,1.07
2018-04-16T14:40:36.179Z,1.10
2018-04-16T14:43:03.636Z,1.10
2018-04-16T14:45:31.139Z,1.10
2018-04-16T14:47:58.612Z,1.10
2018-04-16T14:50:26.860Z,0.90
2018-04-16T14:52:54.335Z,1.07
2018-04-16T14:55:21.834Z,1.10
2018-04-16T14:57:49.316Z,1.00
2018-04-16T15:00:16.807Z,0.93
2018-04-16T15:02:44.292Z,1.50
2018-04-16T15:05:11.770Z,1.73
2018-04-16T15:07:39.227Z,1.13
2018-04-16T15:10:06.705Z,1.10
2018-04-16T15:12:34.175Z,0.90
2018-04-16T15:15:01.686Z,1.20
2018-04-16T15:17:29.224Z,1.00
2018-04-16T15:19:57.633Z,1.17
2018-04-16T15:22:25.142Z,1.00
2018-04-16T15:24:52.630Z,0.90
2018-04-16T15:27:20.097Z,1.02
2018-04-16T15:29:47.595Z,0.90
2018-04-16T15:32:15.098Z,1.05
2018-04-16T15:34:43.346Z,1.15
2018-04-16T15:37:10.843Z,0.98
2018-04-16T15:39:38.413Z,1.00
2018-04-16T15:42:05.905Z,0.90
2018-04-16T15:44:33.489Z,1.00
2018-04-16T15:47:00.971Z,0.93
2018-04-16T15:49:29.248Z,1.20
2018-04-16T15:51:56.811Z,1.00
2018-04-16T15:54:24.300Z,1.33
2018-04-16T15:56:51.776Z,0.98
2018-04-16T15:59:19.371Z,1.23
2018-04-16T16:01:47.670Z,0.98
2018-04-16T16:04:15.523Z,1.20
2018-04-16T16:06:43.023Z,0.90
2018-04-16T16:09:10.524Z,1.40
2018-04-16T16:11:38.772Z,1.00
2018-04-16T16:14:06.259Z,1.15
2018-04-16T16:16:34.524Z,0.82
2018-04-16T16:19:02.093Z,1.05
2018-04-16T16:21:30.320Z,1.12
2018-04-16T16:23:57.809Z,1.20
2018-04-16T16:26:25.265Z,1.00
2018-04-16T16:28:52.767Z,1.20
2018-04-16T16:31:20.250Z,1.20
2018-04-16T16:33:47.732Z,2.08
2018-04-16T16:36:15.245Z,1.60
2018-04-16T16:38:42.761Z,2.83
2018-04-16T16:41:10.265Z,1.80
2018-04-16T16:43:37.728Z,1.77
2018-04-16T16:46:05.213Z,1.40
2018-04-16T16:48:32.714Z,1.47
2018-04-16T16:51:00.375Z,1.40
2018-04-16T16:53:27.856Z,1.80
2018-04-16T16:55:55.412Z,1.57
2018-04-16T16:58:22.970Z,1.70
2018-04-16T17:00:50.455Z,1.37
2018-04-16T17:03:17.949Z,1.70
2018-04-16T17:05:46.200Z,1.60
2018-04-16T17:08:13.670Z,1.40
2018-04-16T17:10:41.148Z,2.53
2018-04-16T17:13:09.376Z,1.77
2018-04-16T17:15:36.876Z,5.33
2018-04-16T17:18:05.112Z,3.07
2018-04-16T17:20:32.595Z,2.80
2018-04-16T17:23:00.061Z,1.77
2018-04-16T17:25:28.370Z,1.93
2018-04-16T17:27:55.842Z,2.67
2018-04-16T17:32:57.247Z,3.50
2018-04-16T17:35:25.498Z,3.30
2018-04-16T17:37:52.963Z,2.50
2018-04-16T17:40:20.436Z,3.40
2018-04-16T17:42:47.896Z,2.30
2018-04-16T17:45:15.397Z,2.43
2018-04-16T17:47:42.874Z,2.47
2018-04-16T17:50:10.372Z,3.50
2018-04-16T17:52:37.872Z,5.63
2018-04-16T17:55:05.353Z,3.30
2018-04-16T17:57:32.848Z,3.00
2018-04-16T18:00:00.318Z,2.70
2018-04-16T18:02:28.551Z,2.53
2018-04-16T18:04:56.135Z,2.30
2018-04-16T18:07:24.277Z,2.27
2018-04-16T18:09:51.769Z,2.40
2018-04-16T18:12:19.268Z,2.60
2018-04-16T18:14:46.807Z,2.90
2018-04-16T18:17:15.039Z,2.90
2018-04-16T18:19:42.517Z,3.00
2018-04-16T18:22:09.976Z,2.70
2018-04-16T18:24:38.228Z,2.77
2018-04-16T18:27:05.767Z,2.60
2018-04-16T18:29:33.350Z,2.90
2018-04-16T18:32:00.849Z,3.60
2018-04-16T18:34:29.121Z,2.80
2018-04-16T18:36:57.380Z,3.27
2018-04-16T18:39:25.116Z,3.07
2018-04-16T18:41:52.589Z,3.40
2018-04-16T18:44:20.063Z,2.73
2018-04-16T18:46:48.986Z,3.43
2018-04-16T18:49:16.480Z,3.57
2018-04-16T18:51:44.754Z,3.63
2018-04-16T18:54:12.221Z,3.30
2018-04-16T18:56:39.713Z,3.90
2018-04-16T18:59:08.015Z,3.53
2018-04-16T19:01:35.556Z,3.27
2018-04-16T19:04:03.104Z,3.30
2018-04-16T19:06:31.357Z,3.30
2018-04-16T19:08:58.866Z,3.53
2018-04-16T19:11:26.422Z,4.10
2018-04-16T19:13:53.908Z,3.70
2018-04-16T19:16:21.413Z,3.43
2018-04-16T19:18:49.828Z,3.85
2018-04-16T19:21:22.979Z,2.93
2018-04-16T19:23:51.289Z,6.63
2018-04-16T19:26:18.842Z,5.57
2018-04-16T19:28:46.336Z,5.70
2018-04-16T19:31:13.820Z,4.90
2018-04-16T19:33:47.834Z,3.77
2018-04-16T19:36:16.081Z,3.30
2018-04-16T19:38:43.551Z,3.53
2018-04-16T19:41:12.557Z,3.83
2018-04-16T19:43:40.777Z,3.83
2018-04-16T19:46:08.267Z,3.60
2018-04-16T19:48:41.539Z,3.87
2018-04-16T19:51:09.078Z,4.00
2018-04-16T19:53:36.537Z,3.53
2018-04-16T19:56:09.816Z,3.47
2018-04-16T19:58:37.289Z,3.57
2018-04-16T20:01:04.823Z,3.73
2018-04-16T20:03:37.873Z,3.97
2018-04-16T20:06:05.373Z,3.80
2018-04-16T20:08:32.860Z,4.33
2018-04-16T20:11:00.344Z,4.17
2018-04-16T20:13:27.828Z,4.00
2018-04-16T20:15:56.116Z,4.00
2018-04-16T20:18:23.572Z,3.73
2018-04-16T20:20:51.840Z,4.33
2018-04-16T20:23:20.072Z,4.10
2018-04-16T20:25:47.572Z,3.47
2018-04-16T20:28:15.120Z,3.60
2018-04-16T20:30:43.080Z,3.40
2018-04-16T20:33:12.056Z,3.17
2018-04-16T20:35:39.549Z,3.20
2018-04-16T20:38:07.842Z,3.67
2018-04-16T20:40:35.285Z,3.20
2018-04-16T20:43:03.539Z,3.50
2018-04-16T20:45:31.021Z,3.90
2018-04-16T20:47:59.251Z,3.20
2018-04-16T20:50:26.744Z,3.23
2018-04-16T20:52:54.975Z,3.57
2018-04-16T20:55:22.465Z,3.50
2018-04-16T20:57:49.934Z,3.30
2018-04-16T21:00:18.203Z,3.50
2018-04-16T21:02:45.660Z,3.47
2018-04-16T21:05:13.156Z,3.50
2018-04-16T21:07:40.621Z,3.87
2018-04-16T21:10:08.089Z,3.63
2018-04-16T21:12:35.600Z,3.40
2018-04-16T21:15:03.844Z,4.13
2018-04-16T21:17:31.318Z,5.00
2018-04-16T21:19:58.780Z,3.90
2018-04-16T21:22:26.269Z,3.70
2018-04-16T21:24:53.741Z,4.00
2018-04-16T21:27:21.254Z,3.70
2018-04-16T21:29:49.506Z,3.97
2018-04-16T21:32:17.032Z,3.87
2018-04-16T21:34:44.583Z,3.60
2018-04-16T21:37:12.099Z,3.93
2018-04-16T21:39:40.353Z,3.73
2018-04-16T21:42:07.848Z,4.03
2018-04-16T21:44:36.520Z,4.67
2018-04-16T21:47:05.950Z,3.90
2018-04-16T21:49:34.055Z,4.00
2018-04-16T21:52:01.594Z,3.73
2018-04-16T21:54:29.069Z,4.20
2018-04-16T21:56:57.225Z,3.77
2018-04-16T21:59:24.759Z,4.13
2018-04-16T22:01:53.003Z,4.10
2018-04-16T22:04:20.531Z,4.03
2018-04-16T22:06:48.068Z,4.33
2018-04-16T22:09:15.652Z,4.33
2018-04-16T22:11:43.147Z,4.30
2018-04-16T22:14:11.394Z,4.47
2018-04-16T22:16:38.998Z,4.67
2018-04-16T22:19:07.422Z,4.90
2018-04-16T22:21:34.960Z,4.73
2018-04-16T22:24:02.551Z,4.23
2018-04-16T22:26:30.085Z,4.37
2018-04-16T22:28:57.653Z,4.40
2018-04-16T22:31:25.151Z,4.40
2018-04-16T22:33:52.636Z,4.13
2018-04-16T22:36:20.879Z,4.47
2018-04-16T22:38:48.358Z,4.07
2018-04-16T22:41:16.629Z,4.10
2018-04-16T22:43:44.090Z,4.53
2018-04-16T22:46:12.361Z,4.60
2018-04-16T22:48:39.820Z,4.40
2018-04-16T22:51:08.131Z,4.90
2018-04-16T22:53:35.620Z,4.80
2018-04-16T22:56:03.118Z,5.17
2018-04-16T22:58:31.518Z,4.87
2018-04-16T23:00:59.027Z,5.00
2018-04-16T23:03:26.638Z,5.10
2018-04-16T23:05:54.119Z,5.20
2018-04-16T23:08:21.616Z,5.00
2018-04-16T23:10:49.162Z,4.80
2018-04-16T23:13:16.631Z,4.83
2018-04-16T23:15:44.108Z,5.60
2018-04-16T23:18:12.363Z,5.50
2018-04-16T23:20:39.831Z,5.17
2018-04-16T23:23:07.328Z,5.23
2018-04-16T23:25:34.786Z,5.70
2018-04-16T23:28:02.287Z,5.57
2018-04-16T23:30:29.778Z,5.73
2018-04-16T23:32:57.332Z,5.23
2018-04-16T23:35:25.635Z,5.80
2018-04-16T23:37:53.113Z,5.30
2018-04-16T23:40:20.580Z,5.13
2018-04-16T23:42:48.116Z,5.50
2018-04-16T23:45:15.673Z,5.33
2018-04-16T23:47:43.153Z,6.07
2018-04-16T23:50:10.687Z,5.50
2018-04-16T23:52:38.196Z,5.30
2018-04-16T23:55:06.424Z,5.77
2018-04-16T23:57:33.918Z,5.70
